createdAt,value
2022-08-07T00:04:48.755Z,99355.65
2022-08-07T00:17:37.307Z,99360.23
2022-08-07T00:20:44.217Z,99357.56
2022-08-07T00:23:22.935Z,99361.95
2022-08-07T00:32:28.442Z,99375.60
2022-08-07T00:35:05.803Z,99372.73
2022-08-07T00:48:08.814Z,99373.66
2022-08-07T00:50:46.510Z,99379.64
2022-08-07T00:53:55.251Z,99375.03
2022-08-07T00:57:20.034Z,99372.20
2022-08-07T00:59:59.628Z,99368.82
2022-08-07T01:13:07.499Z,99371.00
2022-08-07T01:16:05.344Z,99372.56
2022-08-07T01:23:09.122Z,99375.33
2022-08-07T01:25:56.359Z,99381.11
2022-08-07T01:28:59.845Z,99380.57
2022-08-07T01:31:59.538Z,99381.24
2022-08-07T01:34:47.349Z,99376.67
2022-08-07T01:37:26.378Z,99372.09
2022-08-07T01:48:20.198Z,99367.60
2022-08-07T01:50:43.365Z,99370.74
2022-08-07T01:54:08.822Z,99367.39
2022-08-07T01:57:24.585Z,99367.71
2022-08-07T02:00:13.406Z,99362.42
2022-08-07T02:03:21.883Z,99361.70
2022-08-07T02:06:31.523Z,99360.96
2022-08-07T02:09:58.506Z,99355.30
2022-08-07T02:16:16.080Z,99373.29
2022-08-07T02:18:54.223Z,99375.73
2022-08-07T02:21:58.524Z,99373.07
2022-08-07T02:25:01.970Z,99370.77
2022-08-07T02:28:12.838Z,99373.88
2022-08-07T02:30:51.053Z,99369.42
2022-08-07T02:33:42.253Z,99374.38
2022-08-07T02:36:49.870Z,99372.58
2022-08-07T02:40:36.656Z,99374.48
2022-08-07T02:43:16.339Z,99373.73
2022-08-07T02:49:56.486Z,99379.79
2022-08-07T02:53:03.512Z,99376.41
2022-08-07T02:56:28.311Z,99374.41
2022-08-07T02:59:37.552Z,99379.44
2022-08-07T03:03:05.984Z,99381.00
2022-08-07T03:06:16.523Z,99381.83
2022-08-07T03:09:43.682Z,99379.48
2022-08-07T03:13:07.591Z,99376.61
2022-08-07T03:16:36.334Z,99375.18
2022-08-07T03:19:17.268Z,99369.71
2022-08-07T03:22:44.383Z,99373.53
2022-08-07T03:25:40.180Z,99371.23
2022-08-07T03:28:37.675Z,99369.25
2022-08-07T03:31:43.064Z,99372.90
2022-08-07T03:38:21.368Z,99376.77
2022-08-07T03:41:41.997Z,99379.23
2022-08-07T03:44:53.470Z,99378.17
2022-08-07T03:47:56.509Z,99386.83
2022-08-07T03:51:03.815Z,99385.29
2022-08-07T04:01:03.388Z,99378.02
2022-08-07T04:03:53.350Z,99382.05
2022-08-07T04:07:23.077Z,99380.13
2022-08-07T04:09:58.709Z,99387.74
2022-08-07T04:12:39.267Z,99389.20
2022-08-07T04:18:59.765Z,99388.09
2022-08-07T04:22:13.303Z,99388.16
2022-08-07T04:25:19.790Z,99385.04
2022-08-07T04:31:20.207Z,99397.40
2022-08-07T04:38:18.237Z,99411.11
2022-08-07T04:41:25.039Z,99409.88
2022-08-07T04:44:12.743Z,99411.88
2022-08-07T04:47:57.414Z,99413.90
2022-08-07T04:54:30.235Z,99412.52
2022-08-07T04:58:09.809Z,99414.41
2022-08-07T05:00:52.941Z,99413.63
2022-08-07T05:10:58.364Z,99417.60
2022-08-07T05:14:52.970Z,99419.52
2022-08-07T05:17:50.061Z,99417.73
2022-08-07T05:20:46.730Z,99420.54
2022-08-07T05:23:54.283Z,99421.15
2022-08-07T05:26:35.441Z,99418.67
2022-08-07T05:29:51.198Z,99416.48
2022-08-07T05:33:21.126Z,99416.22
2022-08-07T05:35:55.883Z,99424.75
2022-08-07T05:39:00.018Z,99423.21
2022-08-07T05:45:19.846Z,99424.73
2022-08-07T05:48:03.613Z,99421.57
2022-08-07T05:50:43.205Z,99421.97
2022-08-07T05:54:13.996Z,99426.93
2022-08-07T05:56:54.029Z,99426.94
2022-08-07T05:59:55.578Z,99429.44
2022-08-07T06:03:14.546Z,99422.70
2022-08-07T06:10:06.204Z,99425.90
2022-08-07T06:13:16.072Z,99428.75
2022-08-07T06:16:21.771Z,99429.29
2022-08-07T06:20:03.744Z,99426.45
2022-08-07T06:23:46.870Z,99433.34
2022-08-07T06:26:10.232Z,99431.57
2022-08-07T06:29:06.512Z,99430.83
2022-08-07T06:32:16.593Z,99427.08
2022-08-07T06:36:11.915Z,99426.68
2022-08-07T06:40:16.942Z,99429.82
2022-08-07T06:43:04.827Z,99430.31
2022-08-07T06:46:00.962Z,99429.21
2022-08-07T06:49:51.160Z,99424.16
2022-08-07T06:53:00.078Z,99428.65
2022-08-07T06:55:59.940Z,99426.56
2022-08-07T07:00:13.124Z,99419.07
2022-08-07T07:02:08.363Z,99424.77
2022-08-07T07:04:55.159Z,99425.21
2022-08-07T07:08:23.933Z,99426.10
2022-08-07T07:12:07.547Z,99424.98
2022-08-07T07:14:19.224Z,99422.34
2022-08-07T07:20:22.832Z,99422.83
2022-08-07T07:24:09.835Z,99420.54
2022-08-07T07:26:35.369Z,99427.75
2022-08-07T07:29:55.964Z,99425.37
2022-08-07T07:32:46.776Z,99427.55
2022-08-07T07:40:18.015Z,99428.92
2022-08-07T07:42:56.664Z,99424.22
2022-08-07T07:46:38.264Z,99423.77
2022-08-07T07:50:31.285Z,99429.37
2022-08-07T07:52:33.688Z,99434.14
2022-08-07T07:55:37.728Z,99438.45
2022-08-07T07:58:26.540Z,99431.24
2022-08-07T08:02:01.737Z,99425.84
2022-08-07T08:04:20.545Z,99422.95
2022-08-07T08:07:02.726Z,99420.06
2022-08-07T08:09:52.194Z,99416.49
2022-08-07T08:12:52.055Z,99418.06
2022-08-07T08:15:26.092Z,99416.80
2022-08-07T08:18:17.273Z,99413.55
2022-08-07T08:20:51.638Z,99416.00
2022-08-07T08:23:46.141Z,99421.35
2022-08-07T08:26:39.482Z,99421.26
2022-08-07T08:29:17.927Z,99421.82
2022-08-07T08:32:04.720Z,99424.86
2022-08-07T08:34:46.146Z,99423.42
2022-08-07T08:38:00.379Z,99416.98
2022-08-07T08:40:23.646Z,99418.10
2022-08-07T08:43:09.391Z,99418.02
2022-08-07T08:45:59.502Z,99415.98
2022-08-07T08:48:41.758Z,99414.45
2022-08-07T08:51:49.890Z,99414.77
2022-08-07T08:54:18.063Z,99411.16
2022-08-07T08:56:52.838Z,99412.66
2022-08-07T08:59:42.114Z,99412.09
2022-08-07T09:02:36.554Z,99418.45
2022-08-07T09:05:36.745Z,99424.88
2022-08-07T09:08:28.106Z,99421.08
2022-08-07T09:11:14.048Z,99427.18
2022-08-07T09:14:06.413Z,99426.41
2022-08-07T09:16:50.588Z,99420.27
2022-08-07T09:19:52.129Z,99418.09
2022-08-07T09:24:54.495Z,99416.50
2022-08-07T09:25:54.221Z,99411.17
2022-08-07T09:30:02.337Z,99413.27
2022-08-07T09:31:33.714Z,99415.63
2022-08-07T09:34:17.063Z,99410.59
2022-08-07T09:36:56.936Z,99409.30
2022-08-07T09:39:55.523Z,99409.95
2022-08-07T09:42:39.790Z,99405.17
2022-08-07T09:47:23.433Z,99408.30
2022-08-07T09:48:25.164Z,99404.98
2022-08-07T09:52:16.113Z,99401.73
2022-08-07T09:54:21.719Z,99399.46
2022-08-07T09:57:31.175Z,99392.30
2022-08-07T10:00:14.876Z,99389.67
2022-08-07T10:03:08.068Z,99379.00
2022-08-07T10:06:11.895Z,99375.50
2022-08-07T10:09:34.396Z,99375.27
2022-08-07T10:12:26.438Z,99372.98
2022-08-07T10:15:18.719Z,99369.56
2022-08-07T10:18:03.075Z,99369.23
2022-08-07T10:20:44.461Z,99366.36
2022-08-07T10:24:05.156Z,99360.96
2022-08-07T10:26:53.205Z,99356.02
2022-08-07T10:29:45.933Z,99351.64
2022-08-07T10:32:52.607Z,99344.91
2022-08-07T10:35:56.106Z,99346.08
2022-08-07T10:38:47.997Z,99339.50
2022-08-07T10:41:46.896Z,99338.44
2022-08-07T10:44:28.477Z,99332.35
2022-08-07T10:47:26.839Z,99328.23
2022-08-07T10:50:18.893Z,99323.01
2022-08-07T10:53:08.191Z,99325.25
2022-08-07T10:55:47.130Z,99321.11
2022-08-07T10:58:40.386Z,99321.27
2022-08-07T11:01:23.949Z,99319.50
2022-08-07T11:04:11.166Z,99321.73
2022-08-07T11:07:15.145Z,99315.88
2022-08-07T11:10:07.948Z,99313.30
2022-08-07T11:12:49.251Z,99311.95
2022-08-07T11:15:37.601Z,99308.86
2022-08-07T11:18:19.575Z,99312.06
2022-08-07T11:21:00.851Z,99312.69
2022-08-07T11:23:48.286Z,99311.42
2022-08-07T11:26:26.052Z,99309.00
2022-08-07T11:29:13.163Z,99302.84
2022-08-07T11:32:08.712Z,99307.00
2022-08-07T11:34:48.899Z,99301.30
2022-08-07T11:37:38.482Z,99299.30
2022-08-07T11:40:36.408Z,99298.70
2022-08-07T11:43:19.214Z,99297.49
2022-08-07T11:46:33.783Z,99294.13
2022-08-07T11:50:25.360Z,99286.69
2022-08-07T11:53:05.009Z,99293.90
2022-08-07T11:56:28.705Z,99285.25
2022-08-07T12:03:46.043Z,99285.00
2022-08-07T12:07:10.140Z,99282.27
2022-08-07T12:10:12.590Z,99277.58
2022-08-07T12:13:01.291Z,99273.02
2022-08-07T12:16:09.426Z,99266.31
2022-08-07T12:18:53.526Z,99265.77
2022-08-07T12:21:55.811Z,99262.89
2022-08-07T12:26:02.953Z,99264.98
2022-08-07T12:34:49.299Z,99259.98
2022-08-07T12:38:11.467Z,99259.55
2022-08-07T12:40:57.677Z,99258.36
2022-08-07T12:47:46.127Z,99255.79
2022-08-07T12:50:54.392Z,99248.84
2022-08-07T12:54:03.241Z,99241.80
2022-08-07T12:56:40.698Z,99245.64
2022-08-07T12:59:54.366Z,99241.48
2022-08-07T13:03:07.869Z,99239.58
2022-08-07T13:06:04.505Z,99236.16
2022-08-07T13:09:12.585Z,99237.90
2022-08-07T13:16:06.441Z,99231.12
2022-08-07T13:18:55.301Z,99228.55
2022-08-07T13:25:30.035Z,99223.33
2022-08-07T13:28:18.161Z,99224.89
2022-08-07T13:31:23.688Z,99223.04
2022-08-07T13:35:00.220Z,99223.34
2022-08-07T13:38:24.458Z,99213.66
2022-08-07T13:48:06.934Z,99207.86
2022-08-07T13:54:25.024Z,99203.61
2022-08-07T14:00:54.708Z,99199.00
2022-08-07T14:04:07.570Z,99197.00
2022-08-07T14:07:13.711Z,99188.88
2022-08-07T14:10:01.533Z,99185.19
2022-08-07T14:16:30.994Z,99174.80
2022-08-07T14:20:38.241Z,99166.30
2022-08-07T14:22:42.768Z,99165.59
2022-08-07T14:25:29.407Z,99168.11
2022-08-07T14:38:59.355Z,99158.06
2022-08-07T14:42:19.506Z,99150.17
2022-08-07T14:48:48.375Z,99152.22
2022-08-07T14:58:34.371Z,99143.60
2022-08-07T15:04:37.325Z,99133.79
2022-08-07T15:10:58.588Z,99125.46
2022-08-07T15:14:09.907Z,99116.45
2022-08-07T15:17:21.419Z,99120.04
2022-08-07T15:25:16.103Z,99118.38
2022-08-07T15:26:28.692Z,99115.57
2022-08-07T15:30:06.525Z,99118.63
2022-08-07T15:36:04.770Z,99112.52
2022-08-07T15:38:58.917Z,99111.41
2022-08-07T15:42:45.754Z,99113.60
2022-08-07T15:45:56.251Z,99113.04
2022-08-07T15:48:36.557Z,99108.98
2022-08-07T15:54:39.560Z,99111.02
2022-08-07T15:57:52.631Z,99109.98
2022-08-07T16:08:51.060Z,99103.67
2022-08-07T16:15:56.398Z,99100.13
2022-08-07T16:22:33.392Z,99095.10
2022-08-07T16:25:57.396Z,99090.98
2022-08-07T16:30:11.826Z,99089.67
2022-08-07T16:32:54.587Z,99087.25
2022-08-07T16:36:06.104Z,99088.63
2022-08-07T16:39:02.185Z,99086.78
2022-08-07T16:50:28.319Z,99091.52
2022-08-07T16:54:06.359Z,99093.98
2022-08-07T16:58:00.896Z,99098.63
2022-08-07T17:00:55.502Z,99095.27
2022-08-07T17:04:51.093Z,99100.10
2022-08-07T17:08:02.335Z,99097.84
2022-08-07T17:11:05.797Z,99094.40
2022-08-07T17:14:19.005Z,99098.60
2022-08-07T17:17:47.845Z,99094.90
2022-08-07T17:24:27.182Z,99098.80
2022-08-07T17:30:58.020Z,99107.98
2022-08-07T17:34:15.341Z,99107.05
2022-08-07T17:36:57.996Z,99110.08
2022-08-07T17:40:50.702Z,99113.11
2022-08-07T17:47:38.346Z,99114.89
2022-08-07T17:51:03.557Z,99111.46
2022-08-07T17:54:13.503Z,99122.02
2022-08-07T18:15:12.432Z,99140.17
2022-08-07T18:21:00.801Z,99146.21
2022-08-07T18:24:54.767Z,99154.04
2022-08-07T18:27:58.597Z,99157.59
2022-08-07T18:34:40.807Z,99160.79
2022-08-07T18:38:58.810Z,99163.30
2022-08-07T18:41:16.754Z,99155.83
2022-08-07T18:44:04.249Z,99158.80
2022-08-07T18:47:00.210Z,99161.36
2022-08-07T18:50:30.304Z,99163.05
2022-08-07T18:53:13.932Z,99162.74
2022-08-07T18:56:57.835Z,99167.48
2022-08-07T19:00:34.045Z,99163.56
2022-08-07T19:03:16.856Z,99165.33
2022-08-07T19:06:04.769Z,99165.30
2022-08-07T19:08:55.616Z,99166.00
2022-08-07T19:15:01.946Z,99161.98
2022-08-07T19:17:59.072Z,99165.45
2022-08-07T19:21:10.125Z,99173.00
2022-08-07T19:28:56.431Z,99185.72
2022-08-07T19:31:00.297Z,99184.39
2022-08-07T19:37:18.038Z,99186.54
2022-08-07T19:40:17.281Z,99187.11
2022-08-07T19:43:21.936Z,99189.98
2022-08-07T19:46:21.217Z,99185.26
2022-08-07T19:49:09.279Z,99184.41
2022-08-07T19:51:50.803Z,99192.23
2022-08-07T19:54:44.351Z,99198.25
2022-08-07T20:00:34.484Z,99199.02
2022-08-07T20:03:34.937Z,99201.70
2022-08-07T20:10:37.289Z,99213.59
2022-08-07T20:12:32.227Z,99208.83
2022-08-07T20:15:41.411Z,99209.21
2022-08-07T20:18:20.109Z,99211.52
2022-08-07T20:20:53.411Z,99214.71
2022-08-07T20:23:41.923Z,99217.73
2022-08-07T20:26:32.425Z,99223.02
2022-08-07T20:29:57.446Z,99224.27
2022-08-07T20:33:03.075Z,99221.12
2022-08-07T20:35:52.006Z,99223.59
2022-08-07T20:38:32.173Z,99223.41
2022-08-07T20:44:41.515Z,99226.04
2022-08-07T20:47:25.146Z,99228.52
2022-08-07T20:50:05.629Z,99228.69
2022-08-07T20:52:51.266Z,99232.58
2022-08-07T20:55:28.320Z,99231.52
2022-08-07T20:58:39.168Z,99230.28
2022-08-07T21:01:19.911Z,99228.34
2022-08-07T21:08:19.983Z,99235.03
2022-08-07T21:11:12.272Z,99230.27
2022-08-07T21:18:17.284Z,99224.80
2022-08-07T21:20:56.488Z,99225.69
2022-08-07T21:24:21.090Z,99225.33
2022-08-07T21:27:39.895Z,99226.74
2022-08-07T21:30:30.142Z,99230.80
2022-08-07T21:33:38.268Z,99228.51
2022-08-07T21:36:34.540Z,99228.48
2022-08-07T21:39:46.853Z,99226.72
2022-08-07T21:42:46.061Z,99234.48
2022-08-07T21:46:10.941Z,99235.89
2022-08-07T21:48:57.446Z,99240.65
2022-08-07T21:51:54.755Z,99238.88
2022-08-07T21:55:01.167Z,99240.48
2022-08-07T21:58:12.053Z,99236.43
2022-08-07T22:04:53.595Z,99238.55
2022-08-07T22:07:31.599Z,99236.45
2022-08-07T22:10:37.002Z,99238.04
2022-08-07T22:13:52.898Z,99236.98
2022-08-07T22:16:44.044Z,99239.09
2022-08-07T22:23:24.640Z,99244.91
2022-08-07T22:26:12.651Z,99236.45
2022-08-07T22:32:57.009Z,99234.15
2022-08-07T22:35:55.292Z,99229.55
2022-08-07T22:46:21.407Z,99227.94
2022-08-07T22:49:51.654Z,99219.45
2022-08-07T22:53:16.663Z,99219.25
2022-08-07T23:07:46.617Z,99213.73
2022-08-07T23:21:36.909Z,99222.91
2022-08-07T23:24:30.926Z,99218.66
2022-08-07T23:28:22.686Z,99217.02
2022-08-07T23:31:06.383Z,99217.36
2022-08-07T23:34:22.418Z,99214.15
2022-08-07T23:37:22.534Z,99218.33
2022-08-07T23:40:49.300Z,99217.77
2022-08-07T23:47:25.081Z,99220.67
2022-08-07T23:57:43.295Z,99214.21
